METAR Data
IDs: Format: Raw Decoded Include TAF

Data at: 1457 UTC 22 Apr 2021

KPAE 221453Z 21008KT 10SM OVC012 09/06 A2995 RMK AO2 SLP141 T00890056 53012

KPAE 221120Z 2212/2312 17005KT P6SM OVC008
  FM221900 24006KT P6SM BKN022
  FM222100 26005KT P6SM SCT040 SCT200
  FM230100 VRB04KT P6SM SCT200
  FM231000 18008KT P6SM OVC027


KAWO 221409Z AUTO 17004KT 10SM OVC011 08/07 A2995 RMK AO2
No TAF found for KAWO

KBFI 221453Z 19007KT 10SM OVC022 10/06 A2995 RMK AO2 SLP142 T01000056 53008

KBFI 221120Z 2212/2312 18008KT P6SM OVC012
  FM221800 18005KT P6SM OVC020
  FM222100 21005KT P6SM BKN040
  FM230100 17005KT P6SM SCT050 SCT200
  FM230900 19007KT P6SM OVC035


KRNT 221453Z 17006KT 10SM OVC024 11/06 A2995 RMK AO2 SLP145 T01060056 51007
No TAF found for KRNT

KSEA 221453Z 18009KT 10SM OVC016 10/06 A2994 RMK AO2 SLP145 T01000061 53008

KSEA 221120Z 2212/2318 21007KT P6SM OVC010
  FM221800 23006KT P6SM OVC017
  FM222100 23005KT P6SM BKN035
  FM230100 22005KT P6SM SCT050 SCT200
  FM230900 19008KT P6SM OVC030